Needles Airport
KEED : now visible

Airfield :











YOU CAN JOIN US ON...

 
LOGIN :

Register | Disclaimer

   EN    FR    IT 

 









Legend :    VFR   Marginal VFR   IFR   Intensive IFR   Very Intensive IFR
Visi :
Ceiling :
>= 8 km
>= 3000ft
5 to 8 km
1000 to 3000 ft
1500m to 5 km
500 to 1000 ft
800 to 1500m
200 to 500 ft
< 800m
< 200 ft
Symbols :   Thunderstorms  Fog  Heavy snow  Heavy precipitations  Wind > 20 kt






- Airport Elevation : 983 ft


KEED - Needles

CURRENT METAR :
  • 080756Z AUTO 21004KT 10SM OVC023 16/12 A3004 RMK AO2 SLP159 T01560117 401780111 $

EXPIRED METARs :
  • 080736Z AUTO 21004KT 10SM BKN024 OVC030 16/12 A3005 RMK AO2 T01560117 $
  • 080712Z AUTO 00000KT 10SM SCT024 OVC030 16/11 A3005 RMK AO2 T01560111 $
  • 080656Z AUTO 00000KT 10SM OVC024 16/12 A3006 RMK AO2 SLP164 T01560117 $
  • 080556Z AUTO 18004KT 10SM BKN026 OVC033 16/11 A3006 RMK AO2 SLP166 T01610111 10178 20161 54000 $
  • 080539Z AUTO 22007KT 10SM SCT027 OVC033 16/11 A3006 RMK AO2 T01610111 $

TAF KEED
Valid from the 08 at 06:00 until the 09 at 06:00 UTC


080603Z 0806/0906 23006KT P6SM BKN030
FM080800 21005KT P6SM FEW030 BKN060 OVC200
FM081000 VRB05KT P6SM SCT040 BKN060 OVC200
FM090000 24005KT P6SM VCSH SCT040 BKN060 OVC200



MET'MAP, your aeronautical weather chart ! - Copyright ORBIFLY December 2007 - Disclaimer

ORBIFLY MET'MAP TEAM :

Programming & Development : Alexandra Zaïnal
Concept & original design : Baudouin d'Aumeries
Assistance for programming : Marc-Olivier Méhu
Technical & hardware support : Manuel Goepfert

Contact : metmap@orbifly.com




SOURCES & CREDITS :

   NOAA       Earth
Advisory